sensor_id;sensor_type;location;lat;lon;timestamp;pressure;altitude;pressure_sealevel;temperature;humidity
81865;BME280;71313;43.514;1.500;2023-09-30T00:02:24;100687.28;;;25.92;50.28
81865;BME280;71313;43.514;1.500;2023-09-30T00:04:49;100675.69;;;25.82;50.80
81865;BME280;71313;43.514;1.500;2023-09-30T00:07:15;100685.00;;;25.81;50.67
81865;BME280;71313;43.514;1.500;2023-09-30T00:09:40;100688.09;;;25.78;51.11
81865;BME280;71313;43.514;1.500;2023-09-30T00:12:05;100688.66;;;25.73;51.29
81865;BME280;71313;43.514;1.500;2023-09-30T00:14:32;100697.09;;;25.72;51.05
81865;BME280;71313;43.514;1.500;2023-09-30T00:16:57;100697.81;;;25.66;51.06
81865;BME280;71313;43.514;1.500;2023-09-30T00:19:22;100695.59;;;25.61;50.65
81865;BME280;71313;43.514;1.500;2023-09-30T00:21:48;100688.94;;;25.55;50.74
81865;BME280;71313;43.514;1.500;2023-09-30T00:24:14;100696.50;;;25.53;51.12
81865;BME280;71313;43.514;1.500;2023-09-30T00:26:39;100696.19;;;25.48;51.38
81865;BME280;71313;43.514;1.500;2023-09-30T00:29:05;100697.22;;;25.47;51.29
81865;BME280;71313;43.514;1.500;2023-09-30T00:31:31;100688.00;;;25.40;51.31
81865;BME280;71313;43.514;1.500;2023-09-30T00:33:57;100691.78;;;25.39;51.13
81865;BME280;71313;43.514;1.500;2023-09-30T00:36:22;100703.16;;;25.36;51.50
81865;BME280;71313;43.514;1.500;2023-09-30T00:38:48;100688.41;;;25.29;51.99
81865;BME280;71313;43.514;1.500;2023-09-30T00:41:13;100683.47;;;25.24;52.04
81865;BME280;71313;43.514;1.500;2023-09-30T00:43:39;100692.38;;;25.27;51.45
81865;BME280;71313;43.514;1.500;2023-09-30T00:46:35;100688.47;;;25.21;51.61
81865;BME280;71313;43.514;1.500;2023-09-30T00:49:01;100692.63;;;25.17;51.53
81865;BME280;71313;43.514;1.500;2023-09-30T00:51:28;100678.38;;;25.13;51.67
81865;BME280;71313;43.514;1.500;2023-09-30T00:53:55;100687.47;;;25.14;52.25
81865;BME280;71313;43.514;1.500;2023-09-30T00:56:23;100690.78;;;25.09;52.09
81865;BME280;71313;43.514;1.500;2023-09-30T00:58:50;100684.78;;;25.06;52.46
81865;BME280;71313;43.514;1.500;2023-09-30T01:01:17;100686.13;;;25.10;52.14
81865;BME280;71313;43.514;1.500;2023-09-30T01:03:44;100688.38;;;25.06;52.24
81865;BME280;71313;43.514;1.500;2023-09-30T01:06:10;100679.66;;;25.03;52.21
81865;BME280;71313;43.514;1.500;2023-09-30T01:08:35;100686.84;;;25.04;51.93
81865;BME280;71313;43.514;1.500;2023-09-30T01:11:01;100684.28;;;25.02;51.81
81865;BME280;71313;43.514;1.500;2023-09-30T01:13:37;100688.91;;;25.02;51.72
81865;BME280;71313;43.514;1.500;2023-09-30T01:16:07;100687.22;;;25.01;52.24
81865;BME280;71313;43.514;1.500;2023-09-30T01:18:35;100683.78;;;24.99;52.53
81865;BME280;71313;43.514;1.500;2023-09-30T01:21:03;100690.63;;;25.03;52.71
81865;BME280;71313;43.514;1.500;2023-09-30T01:23:32;100687.22;;;25.01;52.68
81865;BME280;71313;43.514;1.500;2023-09-30T01:26:06;100687.56;;;24.98;52.49
81865;BME280;71313;43.514;1.500;2023-09-30T01:28:34;100688.75;;;24.95;52.87
81865;BME280;71313;43.514;1.500;2023-09-30T01:30:59;100686.19;;;24.93;52.77
81865;BME280;71313;43.514;1.500;2023-09-30T01:33:25;100689.97;;;24.92;52.12
81865;BME280;71313;43.514;1.500;2023-09-30T01:35:50;100684.81;;;24.89;52.85
81865;BME280;71313;43.514;1.500;2023-09-30T01:38:16;100685.19;;;24.86;53.12
81865;BME280;71313;43.514;1.500;2023-09-30T01:40:41;100682.63;;;24.85;53.13
81865;BME280;71313;43.514;1.500;2023-09-30T01:43:08;100689.81;;;24.86;53.16
81865;BME280;71313;43.514;1.500;2023-09-30T01:45:33;100694.81;;;24.82;52.39
81865;BME280;71313;43.514;1.500;2023-09-30T01:48:00;100694.13;;;24.80;52.71
81865;BME280;71313;43.514;1.500;2023-09-30T01:50:26;100689.66;;;24.79;52.86
81865;BME280;71313;43.514;1.500;2023-09-30T01:52:51;100696.56;;;24.75;53.24
81865;BME280;71313;43.514;1.500;2023-09-30T01:55:17;100696.72;;;24.74;53.30
81865;BME280;71313;43.514;1.500;2023-09-30T01:57:42;100689.88;;;24.70;53.27
81865;BME280;71313;43.514;1.500;2023-09-30T02:00:08;100688.69;;;24.64;52.89
81865;BME280;71313;43.514;1.500;2023-09-30T02:02:37;100695.94;;;24.57;53.05
81865;BME280;71313;43.514;1.500;2023-09-30T02:05:03;100703.84;;;24.52;53.11
81865;BME280;71313;43.514;1.500;2023-09-30T02:07:30;100694.91;;;24.50;53.77
81865;BME280;71313;43.514;1.500;2023-09-30T02:09:56;100691.16;;;24.43;53.42
81865;BME280;71313;43.514;1.500;2023-09-30T02:12:21;100693.06;;;24.42;53.27
81865;BME280;71313;43.514;1.500;2023-09-30T02:14:47;100692.72;;;24.37;53.82
81865;BME280;71313;43.514;1.500;2023-09-30T02:17:13;100692.91;;;24.36;53.59
81865;BME280;71313;43.514;1.500;2023-09-30T02:19:39;100697.03;;;24.32;53.95
81865;BME280;71313;43.514;1.500;2023-09-30T02:22:05;100692.75;;;24.29;53.31
81865;BME280;71313;43.514;1.500;2023-09-30T02:24:31;100693.22;;;24.24;53.72
81865;BME280;71313;43.514;1.500;2023-09-30T02:26:56;100691.69;;;24.22;53.99
81865;BME280;71313;43.514;1.500;2023-09-30T02:29:22;100694.63;;;24.12;54.62
81865;BME280;71313;43.514;1.500;2023-09-30T02:31:47;100700.78;;;24.14;53.84
81865;BME280;71313;43.514;1.500;2023-09-30T02:34:13;100695.13;;;24.08;54.06
81865;BME280;71313;43.514;1.500;2023-09-30T02:36:38;100700.09;;;24.04;55.20
81865;BME280;71313;43.514;1.500;2023-09-30T02:39:05;100697.03;;;23.99;54.41
81865;BME280;71313;43.514;1.500;2023-09-30T02:41:30;100701.81;;;23.97;55.14
81865;BME280;71313;43.514;1.500;2023-09-30T02:43:56;100705.78;;;23.94;55.06
81865;BME280;71313;43.514;1.500;2023-09-30T02:46:21;100692.06;;;23.86;54.98
81865;BME280;71313;43.514;1.500;2023-09-30T02:48:46;100695.50;;;23.88;55.42
81865;BME280;71313;43.514;1.500;2023-09-30T02:51:12;100690.53;;;23.84;55.26
81865;BME280;71313;43.514;1.500;2023-09-30T02:53:37;100694.47;;;23.81;55.74
81865;BME280;71313;43.514;1.500;2023-09-30T02:56:03;100689.84;;;23.82;55.61
81865;BME280;71313;43.514;1.500;2023-09-30T02:58:29;100680.75;;;23.73;54.76
81865;BME280;71313;43.514;1.500;2023-09-30T03:00:55;100681.63;;;23.74;54.70
81865;BME280;71313;43.514;1.500;2023-09-30T03:03:21;100681.63;;;23.74;55.80
81865;BME280;71313;43.514;1.500;2023-09-30T03:05:47;100677.16;;;23.64;55.19
81865;BME280;71313;43.514;1.500;2023-09-30T03:08:15;100683.50;;;23.65;55.69
81865;BME280;71313;43.514;1.500;2023-09-30T03:10:40;100680.06;;;23.63;55.43
81865;BME280;71313;43.514;1.500;2023-09-30T03:13:06;100688.47;;;23.61;55.15
81865;BME280;71313;43.514;1.500;2023-09-30T03:15:34;100681.94;;;23.54;54.98
81865;BME280;71313;43.514;1.500;2023-09-30T03:18:00;100681.94;;;23.54;55.69
81865;BME280;71313;43.514;1.500;2023-09-30T03:20:25;100682.25;;;23.51;56.05
81865;BME280;71313;43.514;1.500;2023-09-30T03:22:52;100685.69;;;23.53;56.12
81865;BME280;71313;43.514;1.500;2023-09-30T03:25:18;100678.13;;;23.47;55.96
81865;BME280;71313;43.514;1.500;2023-09-30T03:27:46;100681.72;;;23.48;55.43
81865;BME280;71313;43.514;1.500;2023-09-30T03:30:12;100681.72;;;23.48;56.24
81865;BME280;71313;43.514;1.500;2023-09-30T03:32:38;100680.34;;;23.44;55.68
81865;BME280;71313;43.514;1.500;2023-09-30T03:35:08;100679.16;;;23.46;55.24
81865;BME280;71313;43.514;1.500;2023-09-30T03:37:36;100688.75;;;23.42;55.46
81865;BME280;71313;43.514;1.500;2023-09-30T03:40:02;100683.25;;;23.42;55.36
81865;BME280;71313;43.514;1.500;2023-09-30T03:42:37;100679.34;;;23.37;55.91
81865;BME280;71313;43.514;1.500;2023-09-30T03:45:03;100681.91;;;23.38;55.95
81865;BME280;71313;43.514;1.500;2023-09-30T03:47:31;100678.66;;;23.35;55.96
81865;BME280;71313;43.514;1.500;2023-09-30T03:49:56;100686.38;;;23.31;55.99
81865;BME280;71313;43.514;1.500;2023-09-30T03:52:24;100678.66;;;23.26;55.61
81865;BME280;71313;43.514;1.500;2023-09-30T03:54:50;100686.34;;;23.23;56.09
81865;BME280;71313;43.514;1.500;2023-09-30T03:57:16;100683.94;;;23.20;56.02
81865;BME280;71313;43.514;1.500;2023-09-30T03:59:41;100686.00;;;23.18;55.40
81865;BME280;71313;43.514;1.500;2023-09-30T04:02:07;100678.78;;;23.17;55.49
81865;BME280;71313;43.514;1.500;2023-09-30T04:04:33;100678.78;;;23.17;55.71
81865;BME280;71313;43.514;1.500;2023-09-30T04:06:59;100684.59;;;23.14;56.38
81865;BME280;71313;43.514;1.500;2023-09-30T04:09:25;100684.59;;;23.14;56.38
81865;BME280;71313;43.514;1.500;2023-09-30T04:11:50;100680.66;;;23.08;55.96
81865;BME280;71313;43.514;1.500;2023-09-30T04:14:16;100681.16;;;23.04;56.66
81865;BME280;71313;43.514;1.500;2023-09-30T04:16:42;100680.47;;;23.02;56.08
81865;BME280;71313;43.514;1.500;2023-09-30T04:19:08;100678.75;;;23.01;56.63
81865;BME280;71313;43.514;1.500;2023-09-30T04:21:35;100677.38;;;22.96;56.04
81865;BME280;71313;43.514;1.500;2023-09-30T04:24:04;100692.06;;;22.95;56.70
81865;BME280;71313;43.514;1.500;2023-09-30T04:26:29;100683.50;;;22.90;56.89
81865;BME280;71313;43.514;1.500;2023-09-30T04:28:55;100688.97;;;22.90;57.04
81865;BME280;71313;43.514;1.500;2023-09-30T04:31:21;100682.81;;;22.88;56.50
81865;BME280;71313;43.514;1.500;2023-09-30T04:33:49;100678.69;;;22.84;56.32
81865;BME280;71313;43.514;1.500;2023-09-30T04:36:19;100688.28;;;22.88;57.00
81865;BME280;71313;43.514;1.500;2023-09-30T04:38:44;100678.53;;;22.86;56.19
81865;BME280;71313;43.514;1.500;2023-09-30T04:41:10;100669.78;;;22.82;56.58
81865;BME280;71313;43.514;1.500;2023-09-30T04:43:35;100681.25;;;22.86;56.61
81865;BME280;71313;43.514;1.500;2023-09-30T04:46:04;100683.16;;;22.85;55.84
81865;BME280;71313;43.514;1.500;2023-09-30T04:48:29;100676.97;;;22.83;56.24
81865;BME280;71313;43.514;1.500;2023-09-30T04:50:55;100678.69;;;22.84;56.78
81865;BME280;71313;43.514;1.500;2023-09-30T04:53:20;100669.09;;;22.80;56.03
81865;BME280;71313;43.514;1.500;2023-09-30T04:55:46;100675.59;;;22.79;56.06
81865;BME280;71313;43.514;1.500;2023-09-30T04:58:13;100681.38;;;22.76;56.27
81865;BME280;71313;43.514;1.500;2023-09-30T05:00:38;100670.75;;;22.73;56.38
81865;BME280;71313;43.514;1.500;2023-09-30T05:03:04;100688.34;;;22.71;56.89
81865;BME280;71313;43.514;1.500;2023-09-30T05:05:30;100678.91;;;22.65;57.28
81865;BME280;71313;43.514;1.500;2023-09-30T05:07:56;100689.00;;;22.64;56.98
81865;BME280;71313;43.514;1.500;2023-09-30T05:10:23;100693.97;;;22.69;56.36
81865;BME280;71313;43.514;1.500;2023-09-30T05:12:49;100693.97;;;22.69;56.98
81865;BME280;71313;43.514;1.500;2023-09-30T05:15:16;100690.19;;;22.62;56.65
81865;BME280;71313;43.514;1.500;2023-09-30T05:17:42;100695.66;;;22.62;56.49
81865;BME280;71313;43.514;1.500;2023-09-30T05:20:10;100703.38;;;22.66;56.47
81865;BME280;71313;43.514;1.500;2023-09-30T05:22:40;100701.50;;;22.67;57.06
81865;BME280;71313;43.514;1.500;2023-09-30T05:25:08;100705.25;;;22.66;57.30
81865;BME280;71313;43.514;1.500;2023-09-30T05:27:34;100706.97;;;22.67;57.22
81865;BME280;71313;43.514;1.500;2023-09-30T05:29:59;100712.59;;;22.65;56.25
81865;BME280;71313;43.514;1.500;2023-09-30T05:32:25;100715.50;;;22.64;56.36
81865;BME280;71313;43.514;1.500;2023-09-30T05:34:51;100718.25;;;22.64;56.73
81865;BME280;71313;43.514;1.500;2023-09-30T05:37:18;100713.78;;;22.63;57.37
81865;BME280;71313;43.514;1.500;2023-09-30T05:39:47;100723.88;;;22.62;57.13
81865;BME280;71313;43.514;1.500;2023-09-30T05:42:14;100726.06;;;22.59;57.25
81865;BME280;71313;43.514;1.500;2023-09-30T05:44:39;100729.13;;;22.56;57.41
81865;BME280;71313;43.514;1.500;2023-09-30T05:47:05;100729.13;;;22.56;57.57
81865;BME280;71313;43.514;1.500;2023-09-30T05:49:30;100727.41;;;22.55;57.02
81865;BME280;71313;43.514;1.500;2023-09-30T05:51:55;100733.06;;;22.53;57.13
81865;BME280;71313;43.514;1.500;2023-09-30T05:54:21;100731.50;;;22.51;56.77
81865;BME280;71313;43.514;1.500;2023-09-30T05:56:47;100731.50;;;22.51;57.33
81865;BME280;71313;43.514;1.500;2023-09-30T05:59:14;100732.69;;;22.48;56.81
81865;BME280;71313;43.514;1.500;2023-09-30T06:01:40;100736.13;;;22.50;56.95
81865;BME280;71313;43.514;1.500;2023-09-30T06:04:06;100726.34;;;22.48;57.60
81865;BME280;71313;43.514;1.500;2023-09-30T06:06:32;100728.56;;;22.44;57.29
81865;BME280;71313;43.514;1.500;2023-09-30T06:08:58;100733.16;;;22.44;57.28
81865;BME280;71313;43.514;1.500;2023-09-30T06:11:23;100737.78;;;22.43;57.00
81865;BME280;71313;43.514;1.500;2023-09-30T06:13:55;100741.38;;;22.44;57.19
81865;BME280;71313;43.514;1.500;2023-09-30T06:16:24;100739.66;;;22.43;57.22
81865;BME280;71313;43.514;1.500;2023-09-30T06:18:52;100740.69;;;22.42;57.33
81865;BME280;71313;43.514;1.500;2023-09-30T06:21:17;100745.44;;;22.40;57.44
81865;BME280;71313;43.514;1.500;2023-09-30T06:23:50;100749.19;;;22.39;56.90
81865;BME280;71313;43.514;1.500;2023-09-30T06:26:18;100752.09;;;22.37;57.37
81865;BME280;71313;43.514;1.500;2023-09-30T06:28:44;100746.78;;;22.35;57.73
81865;BME280;71313;43.514;1.500;2023-09-30T06:31:10;100746.63;;;22.37;58.04
81865;BME280;71313;43.514;1.500;2023-09-30T06:33:37;100753.81;;;22.38;57.20
81865;BME280;71313;43.514;1.500;2023-09-30T06:36:13;100752.41;;;22.34;57.42
81865;BME280;71313;43.514;1.500;2023-09-30T06:38:42;100762.19;;;22.37;58.10
81865;BME280;71313;43.514;1.500;2023-09-30T06:41:08;100767.47;;;22.38;58.00
81865;BME280;71313;43.514;1.500;2023-09-30T06:43:34;100760.47;;;22.35;58.15
81865;BME280;71313;43.514;1.500;2023-09-30T06:46:07;100767.63;;;22.37;57.85
81865;BME280;71313;43.514;1.500;2023-09-30T06:48:34;100769.03;;;22.41;57.73
81865;BME280;71313;43.514;1.500;2023-09-30T06:51:00;100764.59;;;22.40;58.69
81865;BME280;71313;43.514;1.500;2023-09-30T06:53:25;100761.84;;;22.40;58.08
81865;BME280;71313;43.514;1.500;2023-09-30T06:55:51;100762.88;;;22.39;58.30
81865;BME280;71313;43.514;1.500;2023-09-30T07:00:49;100765.13;;;22.43;58.67
81865;BME280;71313;43.514;1.500;2023-09-30T07:03:16;100767.84;;;22.43;58.01
81865;BME280;71313;43.514;1.500;2023-09-30T07:05:41;100771.28;;;22.45;58.17
81865;BME280;71313;43.514;1.500;2023-09-30T07:08:08;100780.34;;;22.46;58.76
81865;BME280;71313;43.514;1.500;2023-09-30T07:10:33;100781.06;;;22.48;58.45
81865;BME280;71313;43.514;1.500;2023-09-30T07:12:58;100788.25;;;22.49;58.24
81865;BME280;71313;43.514;1.500;2023-09-30T07:15:24;100788.78;;;22.52;58.67
81865;BME280;71313;43.514;1.500;2023-09-30T07:17:49;100784.16;;;22.53;59.11
81865;BME280;71313;43.514;1.500;2023-09-30T07:20:15;100790.34;;;22.55;59.05
81865;BME280;71313;43.514;1.500;2023-09-30T07:22:41;100778.38;;;22.56;58.64
81865;BME280;71313;43.514;1.500;2023-09-30T07:25:07;100777.31;;;22.49;58.75
81865;BME280;71313;43.514;1.500;2023-09-30T07:27:32;100787.53;;;22.47;58.66
81865;BME280;71313;43.514;1.500;2023-09-30T07:29:59;100790.59;;;22.44;58.83
81865;BME280;71313;43.514;1.500;2023-09-30T07:32:24;100781.31;;;22.37;59.47
81865;BME280;71313;43.514;1.500;2023-09-30T07:34:50;100788.88;;;22.43;59.52
81865;BME280;71313;43.514;1.500;2023-09-30T07:37:16;100790.59;;;22.44;60.22
81865;BME280;71313;43.514;1.500;2023-09-30T07:39:43;100790.75;;;22.42;59.92
81865;BME280;71313;43.514;1.500;2023-09-30T07:42:09;100802.63;;;22.51;60.36
81865;BME280;71313;43.514;1.500;2023-09-30T07:44:34;100799.72;;;22.52;60.01
81865;BME280;71313;43.514;1.500;2023-09-30T07:47:05;100805.72;;;22.56;59.86
81865;BME280;71313;43.514;1.500;2023-09-30T07:49:34;100805.72;;;22.56;59.61
81865;BME280;71313;43.514;1.500;2023-09-30T07:52:00;100799.25;;;22.57;60.34
81865;BME280;71313;43.514;1.500;2023-09-30T07:54:25;100811.25;;;22.64;59.99
81865;BME280;71313;43.514;1.500;2023-09-30T07:56:51;100801.88;;;22.66;60.19
81865;BME280;71313;43.514;1.500;2023-09-30T07:59:17;100809.91;;;22.68;60.38
81865;BME280;71313;43.514;1.500;2023-09-30T08:01:43;100809.59;;;22.71;60.65
81865;BME280;71313;43.514;1.500;2023-09-30T08:04:08;100817.88;;;22.79;60.21
81865;BME280;71313;43.514;1.500;2023-09-30T08:06:34;100820.13;;;22.84;60.51
81865;BME280;71313;43.514;1.500;2023-09-30T08:08:59;100818.97;;;22.86;60.49
81865;BME280;71313;43.514;1.500;2023-09-30T08:11:24;100829.59;;;22.89;60.67
81865;BME280;71313;43.514;1.500;2023-09-30T08:13:56;100822.06;;;22.91;59.91
81865;BME280;71313;43.514;1.500;2023-09-30T08:16:21;100821.75;;;22.94;60.75
81865;BME280;71313;43.514;1.500;2023-09-30T08:18:46;100826.25;;;23.04;60.48
81865;BME280;71313;43.514;1.500;2023-09-30T08:21:12;100825.59;;;23.10;60.10
81865;BME280;71313;43.514;1.500;2023-09-30T08:23:37;100819.47;;;23.16;60.78
81865;BME280;71313;43.514;1.500;2023-09-30T08:26:06;100814.50;;;23.19;60.11
81865;BME280;71313;43.514;1.500;2023-09-30T08:28:32;100811.28;;;23.24;60.55
81865;BME280;71313;43.514;1.500;2023-09-30T08:31:04;100821.56;;;23.30;60.36
81865;BME280;71313;43.514;1.500;2023-09-30T08:33:31;100812.34;;;23.31;60.63
81865;BME280;71313;43.514;1.500;2023-09-30T08:36:03;100819.72;;;23.39;59.87
81865;BME280;71313;43.514;1.500;2023-09-30T08:38:35;100827.09;;;23.46;60.74
81865;BME280;71313;43.514;1.500;2023-09-30T08:41:01;100828.31;;;23.52;59.83
81865;BME280;71313;43.514;1.500;2023-09-30T08:43:28;100820.66;;;23.55;59.81
81865;BME280;71313;43.514;1.500;2023-09-30T08:45:56;100826.31;;;23.62;59.98
81865;BME280;71313;43.514;1.500;2023-09-30T08:48:22;100821.34;;;23.66;59.31
81865;BME280;71313;43.514;1.500;2023-09-30T08:50:48;100816.91;;;23.73;60.22
81865;BME280;71313;43.514;1.500;2023-09-30T08:53:16;100819.69;;;23.81;59.80
81865;BME280;71313;43.514;1.500;2023-09-30T08:55:46;100809.25;;;23.84;59.67
81865;BME280;71313;43.514;1.500;2023-09-30T08:58:12;100816.63;;;23.92;59.69
81865;BME280;71313;43.514;1.500;2023-09-30T09:00:39;100807.88;;;23.96;59.20
81865;BME280;71313;43.514;1.500;2023-09-30T09:03:07;100813.56;;;24.03;58.98
81865;BME280;71313;43.514;1.500;2023-09-30T09:05:32;100814.94;;;24.07;58.98
81865;BME280;71313;43.514;1.500;2023-09-30T09:07:58;100805.34;;;24.11;58.35
81865;BME280;71313;43.514;1.500;2023-09-30T09:10:23;100799.16;;;24.17;58.78
81865;BME280;71313;43.514;1.500;2023-09-30T09:12:56;100805.53;;;24.26;57.63
81865;BME280;71313;43.514;1.500;2023-09-30T09:15:26;100806.75;;;24.32;57.67
81865;BME280;71313;43.514;1.500;2023-09-30T09:17:52;100807.59;;;24.32;57.57
81865;BME280;71313;43.514;1.500;2023-09-30T09:20:21;100817.53;;;24.41;57.22
81865;BME280;71313;43.514;1.500;2023-09-30T09:22:49;100819.41;;;24.49;56.80
81865;BME280;71313;43.514;1.500;2023-09-30T09:25:22;100816.50;;;24.50;56.98
81865;BME280;71313;43.514;1.500;2023-09-30T09:27:49;100818.03;;;24.61;57.25
81865;BME280;71313;43.514;1.500;2023-09-30T09:30:16;100815.09;;;24.71;57.33
81865;BME280;71313;43.514;1.500;2023-09-30T09:33:04;100815.09;;;24.79;56.58
81865;BME280;71313;43.514;1.500;2023-09-30T09:35:33;100819.72;;;24.86;56.84
81865;BME280;71313;43.514;1.500;2023-09-30T09:40:29;100803.56;;;25.00;56.68
81865;BME280;71313;43.514;1.500;2023-09-30T09:42:56;100815.88;;;25.12;56.39
81865;BME280;71313;43.514;1.500;2023-09-30T09:45:23;100809.34;;;25.21;56.35
81865;BME280;71313;43.514;1.500;2023-09-30T09:47:49;100806.56;;;25.29;55.90
81865;BME280;71313;43.514;1.500;2023-09-30T09:50:17;100803.78;;;25.37;55.89
81865;BME280;71313;43.514;1.500;2023-09-30T09:52:47;100806.13;;;25.48;55.89
81865;BME280;71313;43.514;1.500;2023-09-30T09:55:18;100793.38;;;25.55;55.22
81865;BME280;71313;43.514;1.500;2023-09-30T09:57:45;100796.78;;;25.66;55.03
81865;BME280;71313;43.514;1.500;2023-09-30T10:00:12;100793.97;;;25.74;55.16
81865;BME280;71313;43.514;1.500;2023-09-30T10:02:42;100798.22;;;25.84;54.39
81865;BME280;71313;43.514;1.500;2023-09-30T10:05:08;100799.00;;;25.93;54.48
81865;BME280;71313;43.514;1.500;2023-09-30T10:07:37;100795.78;;;26.04;53.56
81865;BME280;71313;43.514;1.500;2023-09-30T10:10:11;100788.16;;;26.14;52.92
81865;BME280;71313;43.514;1.500;2023-09-30T10:12:39;100781.19;;;26.27;53.26
81865;BME280;71313;43.514;1.500;2023-09-30T10:18:01;100779.09;;;26.51;52.39
81865;BME280;71313;43.514;1.500;2023-09-30T10:20:35;100771.78;;;26.59;51.71
81865;BME280;71313;43.514;1.500;2023-09-30T10:23:19;100774.34;;;26.60;52.28
81865;BME280;71313;43.514;1.500;2023-09-30T10:25:46;100774.94;;;26.70;51.85
81865;BME280;71313;43.514;1.500;2023-09-30T10:28:41;100768.28;;;26.79;51.91
81865;BME280;71313;43.514;1.500;2023-09-30T10:36:36;100761.66;;;27.18;51.71
81865;BME280;71313;43.514;1.500;2023-09-30T10:39:10;100756.97;;;27.33;50.59
81865;BME280;71313;43.514;1.500;2023-09-30T10:46:48;100759.84;;;27.76;49.61
81865;BME280;71313;43.514;1.500;2023-09-30T10:51:53;100751.78;;;27.96;48.84
81865;BME280;71313;43.514;1.500;2023-09-30T10:54:38;100751.63;;;28.04;48.61
81865;BME280;71313;43.514;1.500;2023-09-30T10:57:03;100744.72;;;28.15;48.82
81865;BME280;71313;43.514;1.500;2023-09-30T10:59:29;100739.34;;;28.28;47.49
81865;BME280;71313;43.514;1.500;2023-09-30T11:02:00;100746.50;;;28.43;47.61
81865;BME280;71313;43.514;1.500;2023-09-30T11:04:26;100737.66;;;28.61;47.55
81865;BME280;71313;43.514;1.500;2023-09-30T11:06:55;100732.25;;;28.81;47.42
81865;BME280;71313;43.514;1.500;2023-09-30T11:09:22;100743.59;;;29.27;47.00
81865;BME280;71313;43.514;1.500;2023-09-30T11:11:52;100746.75;;;29.72;44.85
81865;BME280;71313;43.514;1.500;2023-09-30T11:14:28;100738.75;;;30.10;44.13
81865;BME280;71313;43.514;1.500;2023-09-30T11:16:59;100734.47;;;30.60;42.90
81865;BME280;71313;43.514;1.500;2023-09-30T11:19:24;100716.09;;;30.86;41.75
81865;BME280;71313;43.514;1.500;2023-09-30T11:21:54;100722.63;;;31.56;41.54
81865;BME280;71313;43.514;1.500;2023-09-30T11:24:21;100727.97;;;32.45;39.49
81865;BME280;71313;43.514;1.500;2023-09-30T11:26:47;100735.63;;;33.48;38.01
81865;BME280;71313;43.514;1.500;2023-09-30T11:29:16;100730.69;;;34.33;36.39
81865;BME280;71313;43.514;1.500;2023-09-30T11:31:44;100723.63;;;35.12;35.96
81865;BME280;71313;43.514;1.500;2023-09-30T11:34:10;100711.72;;;35.86;34.77
81865;BME280;71313;43.514;1.500;2023-09-30T11:36:41;100716.75;;;36.17;33.66
81865;BME280;71313;43.514;1.500;2023-09-30T11:39:24;100712.16;;;36.45;33.56
81865;BME280;71313;43.514;1.500;2023-09-30T11:41:50;100706.28;;;36.63;33.00
81865;BME280;71313;43.514;1.500;2023-09-30T11:44:17;100704.81;;;37.16;33.22
81865;BME280;71313;43.514;1.500;2023-09-30T11:46:57;100701.25;;;37.96;31.83
81865;BME280;71313;43.514;1.500;2023-09-30T11:49:28;100698.94;;;38.57;29.87
81865;BME280;71313;43.514;1.500;2023-09-30T11:51:55;100690.19;;;38.48;29.77
81865;BME280;71313;43.514;1.500;2023-09-30T11:54:20;100694.81;;;38.27;30.25
81865;BME280;71313;43.514;1.500;2023-09-30T11:56:47;100690.38;;;38.74;29.45
81865;BME280;71313;43.514;1.500;2023-09-30T11:59:13;100678.09;;;39.52;29.38
81865;BME280;71313;43.514;1.500;2023-09-30T12:01:39;100683.22;;;40.27;27.68
81865;BME280;71313;43.514;1.500;2023-09-30T12:04:05;100682.03;;;40.68;26.17
81865;BME280;71313;43.514;1.500;2023-09-30T12:06:30;100680.00;;;40.99;26.53
81865;BME280;71313;43.514;1.500;2023-09-30T12:08:56;100676.75;;;41.31;25.84
81865;BME280;71313;43.514;1.500;2023-09-30T12:11:22;100671.53;;;41.59;25.69
81865;BME280;71313;43.514;1.500;2023-09-30T12:13:49;100669.19;;;41.71;25.48
81865;BME280;71313;43.514;1.500;2023-09-30T12:16:17;100668.09;;;41.67;26.32
81865;BME280;71313;43.514;1.500;2023-09-30T12:18:43;100666.03;;;41.38;25.72
81865;BME280;71313;43.514;1.500;2023-09-30T12:21:12;100660.97;;;41.35;25.79
81865;BME280;71313;43.514;1.500;2023-09-30T12:23:39;100655.22;;;41.50;25.83
81865;BME280;71313;43.514;1.500;2023-09-30T12:26:05;100652.84;;;41.68;25.63
81865;BME280;71313;43.514;1.500;2023-09-30T12:28:34;100647.13;;;41.78;25.11
81865;BME280;71313;43.514;1.500;2023-09-30T12:31:00;100654.47;;;41.79;24.78
81865;BME280;71313;43.514;1.500;2023-09-30T12:33:30;100644.94;;;41.70;25.41
81865;BME280;71313;43.514;1.500;2023-09-30T12:35:56;100637.03;;;41.72;25.37
81865;BME280;71313;43.514;1.500;2023-09-30T12:38:23;100642.59;;;41.82;25.44
81865;BME280;71313;43.514;1.500;2023-09-30T12:40:51;100639.72;;;41.87;25.72
81865;BME280;71313;43.514;1.500;2023-09-30T12:43:16;100636.94;;;41.82;25.31
81865;BME280;71313;43.514;1.500;2023-09-30T12:45:42;100633.16;;;41.63;24.74
81865;BME280;71313;43.514;1.500;2023-09-30T12:48:07;100633.38;;;41.32;25.18
81865;BME280;71313;43.514;1.500;2023-09-30T12:50:33;100631.84;;;40.96;25.53
81865;BME280;71313;43.514;1.500;2023-09-30T12:52:58;100621.81;;;40.64;26.10
81865;BME280;71313;43.514;1.500;2023-09-30T12:55:24;100630.59;;;40.32;26.14
81865;BME280;71313;43.514;1.500;2023-09-30T12:57:52;100623.34;;;40.01;26.37
81865;BME280;71313;43.514;1.500;2023-09-30T13:00:18;100624.16;;;39.66;26.77
81865;BME280;71313;43.514;1.500;2023-09-30T13:02:44;100619.03;;;39.37;27.15
81865;BME280;71313;43.514;1.500;2023-09-30T13:05:11;100627.38;;;39.07;27.30
81865;BME280;71313;43.514;1.500;2023-09-30T13:07:37;100612.72;;;38.84;27.13
81865;BME280;71313;43.514;1.500;2023-09-30T13:10:03;100605.81;;;38.55;27.52
81865;BME280;71313;43.514;1.500;2023-09-30T13:12:30;100611.78;;;38.21;28.24